createdAt,value
2024-01-19T00:02:18.300Z,98470.38
2024-01-19T00:07:10.269Z,98479.28
2024-01-19T00:12:02.545Z,98479.13
2024-01-19T00:16:54.343Z,98478.31
2024-01-19T00:21:47.550Z,98479.00
2024-01-19T00:26:39.429Z,98453.81
2024-01-19T00:31:31.638Z,98455.31
2024-01-19T00:36:23.910Z,98416.47
2024-01-19T00:41:16.890Z,98418.00
2024-01-19T00:46:08.703Z,98423.44
2024-01-19T00:51:00.853Z,98415.50
2024-01-19T00:55:52.800Z,98399.47
2024-01-19T01:00:44.641Z,98396.00
2024-01-19T01:05:36.528Z,98408.53
2024-01-19T01:10:28.400Z,98427.75
2024-01-19T01:15:20.185Z,98418.16
2024-01-19T01:20:12.754Z,98425.25
2024-01-19T01:25:04.952Z,98454.22
2024-01-19T01:29:56.766Z,98459.19
2024-01-19T01:34:48.625Z,98434.72
2024-01-19T01:39:40.494Z,98436.94
2024-01-19T01:44:33.073Z,98439.16
2024-01-19T01:49:25.659Z,98466.31
2024-01-19T01:54:17.589Z,98489.44
2024-01-19T01:59:10.398Z,98502.38
2024-01-19T02:04:03.656Z,98498.06
2024-01-19T02:08:55.978Z,98516.75
2024-01-19T02:13:47.840Z,98528.31
2024-01-19T02:18:40.642Z,98539.00
2024-01-19T02:23:43.303Z,98528.16
2024-01-19T02:28:35.573Z,98544.03
2024-01-19T02:33:27.855Z,98525.66
2024-01-19T02:38:19.738Z,98539.97
2024-01-19T02:43:11.516Z,98531.06
2024-01-19T02:48:03.954Z,98530.94
2024-01-19T02:52:55.960Z,98535.25
2024-01-19T02:57:47.709Z,98559.06
2024-01-19T03:02:39.576Z,98563.53
2024-01-19T03:07:31.401Z,98584.69
2024-01-19T03:12:23.151Z,98605.16
2024-01-19T03:17:14.960Z,98615.63
2024-01-19T03:22:06.895Z,98605.03
2024-01-19T03:26:58.734Z,98619.34
2024-01-19T03:31:50.681Z,98613.09
2024-01-19T03:36:42.595Z,98604.31
2024-01-19T03:41:34.400Z,98637.75
2024-01-19T03:46:26.231Z,98634.13
2024-01-19T03:51:17.960Z,98636.91
2024-01-19T03:56:10.517Z,98628.00
2024-01-19T04:01:02.409Z,98643.88
2024-01-19T04:05:54.335Z,98629.38
2024-01-19T04:10:46.113Z,98650.13
2024-01-19T04:15:37.833Z,98624.38
2024-01-19T04:20:29.587Z,98616.28
2024-01-19T04:25:21.319Z,98631.34
2024-01-19T04:30:13.391Z,98630.53
2024-01-19T04:35:05.930Z,98641.91
2024-01-19T04:39:57.753Z,98639.13
2024-01-19T04:44:49.873Z,98661.97
2024-01-19T04:49:41.600Z,98661.16
2024-01-19T04:54:33.331Z,98670.88
2024-01-19T04:59:25.208Z,98671.59
2024-01-19T05:04:16.979Z,98678.97
2024-01-19T05:09:09.432Z,98672.44
2024-01-19T05:14:04.225Z,98663.66
2024-01-19T05:18:56.053Z,98682.16
2024-01-19T05:23:47.940Z,98677.84
2024-01-19T05:28:40.415Z,98672.56
2024-01-19T05:33:35.520Z,98675.91
2024-01-19T05:38:29.404Z,98658.38
2024-01-19T05:43:21.159Z,98673.25
2024-01-19T05:48:13.138Z,98681.91
2024-01-19T05:53:04.868Z,98654.34
2024-01-19T05:57:56.586Z,98670.75
2024-01-19T06:02:48.346Z,98664.75
2024-01-19T06:07:40.528Z,98669.78
2024-01-19T06:12:32.324Z,98677.72
2024-01-19T06:17:24.185Z,98678.56
2024-01-19T06:22:15.962Z,98672.41
2024-01-19T06:27:07.746Z,98683.13
2024-01-19T06:31:59.551Z,98711.28
2024-01-19T06:36:51.252Z,98709.34
2024-01-19T06:41:46.412Z,98717.28
2024-01-19T06:46:38.682Z,98708.50
2024-01-19T06:51:30.393Z,98721.88
2024-01-19T06:56:22.134Z,98728.69
2024-01-19T07:01:14.118Z,98730.25
2024-01-19T07:06:06.573Z,98753.09
2024-01-19T07:10:58.389Z,98776.75
2024-01-19T07:15:50.293Z,98792.63
2024-01-19T07:20:43.336Z,98795.84
2024-01-19T07:25:35.157Z,98803.78
2024-01-19T07:30:26.834Z,98808.09
2024-01-19T07:35:18.982Z,98815.78
2024-01-19T07:40:11.322Z,98849.34
2024-01-19T07:45:03.217Z,98852.00
2024-01-19T07:49:55.080Z,98857.56
2024-01-19T07:54:46.776Z,98870.66
2024-01-19T07:59:38.529Z,98884.28
2024-01-19T08:04:30.617Z,98866.34
2024-01-19T08:09:22.381Z,98884.59
2024-01-19T08:14:14.418Z,98906.59
2024-01-19T08:19:06.311Z,98896.97
2024-01-19T08:23:58.489Z,98916.22
2024-01-19T08:28:50.317Z,98943.53
2024-01-19T08:33:42.227Z,98935.56
2024-01-19T08:38:34.190Z,98954.00
2024-01-19T08:43:26.307Z,98944.22
2024-01-19T08:48:18.118Z,98944.22
2024-01-19T08:53:09.860Z,98960.13
2024-01-19T08:58:01.666Z,98976.13
2024-01-19T09:03:00.415Z,98987.44
2024-01-19T09:07:56.141Z,98988.25
2024-01-19T09:12:47.943Z,98998.84
2024-01-19T09:17:39.735Z,99011.13
2024-01-19T09:22:31.460Z,99013.91
2024-01-19T09:27:23.230Z,99015.84
2024-01-19T09:32:17.723Z,99036.78
2024-01-19T09:37:09.421Z,99042.06
2024-01-19T09:42:19.436Z,99054.44
2024-01-19T09:47:22.523Z,99059.75
2024-01-19T09:52:27.742Z,99070.22
2024-01-19T09:57:19.550Z,99078.41
2024-01-19T10:02:13.686Z,99089.72
2024-01-19T10:07:05.453Z,99085.25
2024-01-19T10:11:57.306Z,99088.03
2024-01-19T10:16:50.451Z,99095.84
2024-01-19T10:21:42.124Z,99101.84
2024-01-19T10:26:33.826Z,99109.66
2024-01-19T10:31:27.500Z,99126.25
2024-01-19T10:36:19.885Z,99141.56
2024-01-19T10:41:23.466Z,99153.53
2024-01-19T10:46:23.227Z,99166.09
2024-01-19T10:51:15.021Z,99174.63
2024-01-19T10:56:06.856Z,99185.31
2024-01-19T11:01:13.454Z,99181.03
2024-01-19T11:06:05.406Z,99201.09
2024-01-19T11:10:57.788Z,99200.25
2024-01-19T11:15:51.720Z,99211.56
2024-01-19T11:20:43.774Z,99220.47
2024-01-19T11:26:05.196Z,99222.28
2024-01-19T11:31:17.932Z,99250.44
2024-01-19T11:36:10.186Z,99256.69
2024-01-19T11:41:01.987Z,99268.00
2024-01-19T11:45:54.197Z,99260.91
2024-01-19T11:50:48.501Z,99265.22
2024-01-19T11:55:42.702Z,99268.84
2024-01-19T12:00:34.683Z,99280.16
2024-01-19T12:05:27.069Z,99274.28
2024-01-19T12:10:19.614Z,99290.75
2024-01-19T12:15:12.678Z,99303.03
2024-01-19T12:20:10.756Z,99291.94
2024-01-19T12:25:23.309Z,99271.50
2024-01-19T12:30:17.179Z,99295.31
2024-01-19T12:35:09.463Z,99338.88
2024-01-19T12:40:22.576Z,99354.31
2024-01-19T12:45:17.002Z,99388.50
2024-01-19T12:50:13.888Z,99393.31
2024-01-19T12:55:09.373Z,99398.59
2024-01-19T13:00:12.625Z,99427.72
2024-01-19T13:05:06.005Z,99456.47
2024-01-19T13:10:02.603Z,99468.75
2024-01-19T13:15:13.031Z,99486.19
2024-01-19T13:20:05.927Z,99503.75
2024-01-19T13:24:57.903Z,99500.41
2024-01-19T13:29:49.885Z,99495.13
2024-01-19T13:34:43.464Z,99517.88
2024-01-19T13:39:35.412Z,99528.91
2024-01-19T13:44:27.374Z,99545.91
2024-01-19T13:49:19.141Z,99560.00
2024-01-19T13:54:10.982Z,99572.88
2024-01-19T13:59:02.758Z,99589.72
2024-01-19T14:03:55.002Z,99601.28
2024-01-19T14:08:48.153Z,99621.16
2024-01-19T14:13:40.191Z,99623.88
2024-01-19T14:18:34.942Z,99644.97
2024-01-19T14:23:28.697Z,99668.06
2024-01-19T14:28:20.565Z,99696.25
2024-01-19T14:33:12.637Z,99712.22
2024-01-19T14:38:06.129Z,99726.47
2024-01-19T14:43:08.802Z,99732.38
2024-01-19T14:48:00.762Z,99753.97
2024-01-19T14:52:54.915Z,99761.09
2024-01-19T14:57:46.920Z,99778.69
2024-01-19T15:02:39.068Z,99762.28
2024-01-19T15:07:32.995Z,99789.47
2024-01-19T15:12:24.821Z,99782.50
2024-01-19T15:17:16.614Z,99798.38
2024-01-19T15:22:08.369Z,99807.28
2024-01-19T15:27:00.095Z,99828.25
2024-01-19T15:31:55.332Z,99836.19
2024-01-19T15:36:48.684Z,99840.75
2024-01-19T15:41:40.470Z,99854.59
2024-01-19T15:46:32.306Z,99865.19
2024-01-19T15:51:25.509Z,99866.81
2024-01-19T15:56:29.367Z,99895.81
2024-01-19T16:01:23.872Z,99912.53
2024-01-19T16:06:16.462Z,99924.94
2024-01-19T16:11:09.869Z,99938.19
2024-01-19T16:16:11.804Z,99953.19
2024-01-19T16:21:04.354Z,99973.34
2024-01-19T16:25:56.569Z,99997.19
2024-01-19T16:30:48.467Z,99997.06
2024-01-19T16:35:40.264Z,100000.03
2024-01-19T16:40:31.992Z,100023.66
2024-01-19T16:45:23.837Z,100037.75
2024-01-19T16:50:15.611Z,100042.53
2024-01-19T16:55:08.011Z,100046.44
2024-01-19T16:59:59.743Z,100055.41
2024-01-19T17:04:51.651Z,100071.84
2024-01-19T17:09:43.502Z,100065.81
2024-01-19T17:14:37.100Z,100079.47
2024-01-19T17:19:29.323Z,100072.91
2024-01-19T17:24:21.299Z,100096.00
2024-01-19T17:29:14.149Z,100111.56
2024-01-19T17:34:09.860Z,100114.22
2024-01-19T17:39:05.583Z,100132.69
2024-01-19T17:43:57.451Z,100136.03
2024-01-19T17:48:50.027Z,100142.84
2024-01-19T17:53:42.268Z,100143.59
2024-01-19T17:58:34.047Z,100150.59
2024-01-19T18:03:27.057Z,100155.66
2024-01-19T18:08:18.863Z,100167.94
2024-01-19T18:13:10.632Z,100188.19
2024-01-19T18:18:03.278Z,100193.47
2024-01-19T18:22:55.468Z,100201.44
2024-01-19T18:27:48.195Z,100225.09
2024-01-19T18:32:41.913Z,100213.41
2024-01-19T18:37:34.600Z,100223.72
2024-01-19T18:42:26.358Z,100224.59
2024-01-19T18:47:18.152Z,100227.44
2024-01-19T18:52:10.016Z,100245.69
2024-01-19T18:57:01.942Z,100246.50
2024-01-19T19:01:53.906Z,100252.69
2024-01-19T19:06:45.828Z,100250.66
2024-01-19T19:11:37.892Z,100266.69
2024-01-19T19:16:37.075Z,100276.41
2024-01-19T19:21:37.233Z,100278.31
2024-01-19T19:26:29.315Z,100295.84
2024-01-19T19:31:22.211Z,100295.84
2024-01-19T19:36:14.372Z,100301.13
2024-01-19T19:41:07.046Z,100311.63
2024-01-19T19:45:59.068Z,100313.97
2024-01-19T19:50:50.754Z,100317.56
2024-01-19T19:55:48.699Z,100322.66
2024-01-19T20:00:40.868Z,100334.72
2024-01-19T20:05:32.631Z,100332.00
2024-01-19T20:10:24.478Z,100332.63
2024-01-19T20:15:17.159Z,100347.28
2024-01-19T20:20:09.890Z,100352.59
2024-01-19T20:25:02.097Z,100349.81
2024-01-19T20:29:53.806Z,100355.13
2024-01-19T20:34:47.174Z,100363.19
2024-01-19T20:39:39.345Z,100375.38
2024-01-19T20:44:31.125Z,100375.19
2024-01-19T20:49:25.284Z,100383.34
2024-01-19T20:54:17.106Z,100393.94
2024-01-19T20:59:08.976Z,100394.88
2024-01-19T21:04:00.950Z,100403.72
2024-01-19T21:08:52.857Z,100403.72
2024-01-19T21:13:45.193Z,100402.66
2024-01-19T21:18:38.632Z,100417.50
2024-01-19T21:23:30.546Z,100422.78
2024-01-19T21:28:22.362Z,100436.03
2024-01-19T21:33:14.166Z,100437.75
2024-01-19T21:38:06.096Z,100458.78
2024-01-19T21:42:58.747Z,100469.38
2024-01-19T21:47:50.920Z,100478.28
2024-01-19T21:52:45.547Z,100477.72
2024-01-19T21:57:38.927Z,100483.88
2024-01-19T22:02:30.784Z,100498.53
2024-01-19T22:07:22.638Z,100501.28
2024-01-19T22:12:15.224Z,100521.53
2024-01-19T22:17:07.180Z,100535.56
2024-01-19T22:21:59.006Z,100546.16
2024-01-19T22:26:51.183Z,100554.88
2024-01-19T22:31:43.842Z,100568.13
2024-01-19T22:36:36.353Z,100582.16
2024-01-19T22:41:28.529Z,100575.97
2024-01-19T22:46:20.831Z,100593.47
2024-01-19T22:51:13.891Z,100602.41
2024-01-19T22:56:06.326Z,100607.59
2024-01-19T23:00:58.573Z,100615.56
2024-01-19T23:05:50.424Z,100630.44
2024-01-19T23:10:42.286Z,100629.47
2024-01-19T23:15:34.252Z,100632.13
2024-01-19T23:20:26.674Z,100642.63
2024-01-19T23:25:23.318Z,100628.41
2024-01-19T23:30:22.261Z,100639.91
2024-01-19T23:35:14.495Z,100654.00
2024-01-19T23:40:07.316Z,100651.34
2024-01-19T23:45:00.938Z,100645.19
2024-01-19T23:49:52.733Z,100647.75
2024-01-19T23:54:44.579Z,100648.81
2024-01-19T23:59:36.693Z,100655.81
